Time;durP1;ratioP1;P1;durP2;ratioP2;P2;SDS_P1;SDS_P2;PMS_P1;PMS_P2;Temp;Humidity;BMP_temperature;BMP_pressure;BME280_temperature;BME280_humidity;BME280_pressure;Samples;Min_cycle;Max_cycle;Signal;HPM_P1;HPM_P2
2023/11/11 00:02:10;;;;;;;11.30;6.90;;;;;;;6.63;83.44;99827.24;79458;1297;3011831;-65
2023/11/11 00:04:38;;;;;;;9.80;6.80;;;;;;;6.48;83.59;99820.69;78186;1303;3052815;-68
2023/11/11 00:07:05;;;;;;;11.60;6.90;;;;;;;6.35;84.10;99815.96;79433;1296;3018620;-70
2023/11/11 00:09:32;;;;;;;12.30;7.40;;;;;;;6.13;84.74;99807.39;79383;1300;3013612;-66
2023/11/11 00:12:02;;;;;;;12.50;7.20;;;;;;;5.94;85.81;99808.40;78216;1298;3048666;-65
2023/11/11 00:14:29;;;;;;;11.80;7.90;;;;;;;5.82;86.46;99807.94;79447;1296;3011900;-67
2023/11/11 00:16:55;;;;;;;8.10;5.30;;;;;;;5.65;87.15;99811.30;79389;1297;3011885;-69
2023/11/11 00:19:24;;;;;;;9.10;6.10;;;;;;;6.15;86.76;99796.15;78279;1300;3052044;-68
2023/11/11 00:21:53;;;;;;;8.30;6.30;;;;;;;6.62;84.29;99795.46;79478;1296;3018910;-70
2023/11/11 00:24:20;;;;;;;7.80;5.70;;;;;;;6.65;83.55;99789.04;79291;1297;3011767;-68
2023/11/11 00:26:48;;;;;;;10.80;6.70;;;;;;;6.49;83.72;99793.52;78277;1297;3048286;-67
2023/11/11 00:29:18;;;;;;;8.60;6.70;;;;;;;6.35;84.21;99790.58;79381;1298;3013514;-67
2023/11/11 00:31:48;;;;;;;11.70;7.30;;;;;;;6.19;84.43;99787.16;78845;1297;3012889;-66
2023/11/11 00:34:18;;;;;;;10.70;6.60;;;;;;;5.92;85.12;99786.02;79455;1297;3015707;-66
2023/11/11 00:36:47;;;;;;;9.10;7.30;;;;;;;5.78;86.06;99785.48;77991;1297;3067897;-68
2023/11/11 00:39:14;;;;;;;9.90;5.20;;;;;;;5.64;86.81;99786.67;79485;1297;3013474;-66
2023/11/11 00:41:42;;;;;;;10.30;6.30;;;;;;;6.10;85.98;99784.17;79401;1297;3011887;-66
2023/11/11 00:44:10;;;;;;;10.00;6.60;;;;;;;6.63;83.65;99787.38;78327;1300;3052493;-70
2023/11/11 00:46:37;;;;;;;8.50;6.00;;;;;;;6.57;82.75;99780.30;79484;1301;3019109;-66
2023/11/11 00:49:05;;;;;;;8.10;6.20;;;;;;;6.57;82.95;99774.91;79372;1300;3011602;-67
2023/11/11 00:51:39;;;;;;;10.80;6.00;;;;;;;6.37;83.46;99769.06;78154;1300;3068221;-67
2023/11/11 00:54:09;;;;;;;10.70;6.90;;;;;;;6.19;83.97;99766.64;79471;1300;3011885;-66
2023/11/11 00:56:37;;;;;;;10.90;7.90;;;;;;;6.06;84.70;99763.46;78249;1298;3055705;-69
2023/11/11 00:59:06;;;;;;;12.50;7.80;;;;;;;5.92;85.00;99762.20;79408;1296;3013312;-69
2023/11/11 01:01:34;;;;;;;7.70;4.90;;;;;;;5.80;85.79;99760.04;79492;1297;3011908;-72
2023/11/11 01:04:05;;;;;;;8.20;6.20;;;;;;;6.31;84.81;99749.67;78182;1300;3052983;-69
2023/11/11 01:06:32;;;;;;;7.50;5.60;;;;;;;6.75;82.70;99745.50;79421;1299;3012893;-72
2023/11/11 01:09:01;;;;;;;7.10;5.40;;;;;;;6.82;82.26;99743.27;78968;1295;3013049;-73
2023/11/11 01:11:27;;;;;;;8.00;5.90;;;;;;;6.70;82.28;99738.20;79506;1296;3013652;-72
2023/11/11 01:13:54;;;;;;;11.10;6.00;;;;;;;6.61;82.77;99733.85;79413;1297;3011616;-71
2023/11/11 01:16:22;;;;;;;7.80;6.00;;;;;;;6.49;82.81;99730.17;78148;1300;3026525;-68
2023/11/11 01:18:49;;;;;;;8.70;6.50;;;;;;;6.36;83.03;99727.20;79508;1300;3013185;-71
2023/11/11 01:21:15;;;;;;;10.70;6.90;;;;;;;6.21;83.64;99721.88;79493;1300;3011634;-70
2023/11/11 01:23:44;;;;;;;8.20;5.20;;;;;;;6.11;84.23;99722.60;78218;1300;3026321;-68
2023/11/11 01:26:10;;;;;;;8.10;5.90;;;;;;;6.54;83.56;99721.77;79549;1296;3016293;-65
2023/11/11 01:28:39;;;;;;;7.90;4.90;;;;;;;7.00;81.61;99724.95;79450;1297;3011474;-68
2023/11/11 01:31:07;;;;;;;6.90;5.30;;;;;;;7.17;81.26;99718.84;78255;1297;3053369;-73
2023/11/11 01:33:33;;;;;;;9.70;5.70;;;;;;;7.04;80.97;99714.33;79524;1300;3018937;-71
2023/11/11 01:36:01;;;;;;;7.10;5.60;;;;;;;6.88;81.20;99708.23;79436;1297;3011648;-70
2023/11/11 01:38:29;;;;;;;9.70;5.90;;;;;;;6.64;81.53;99701.36;78400;1296;3068595;-69
2023/11/11 01:40:55;;;;;;;9.20;5.90;;;;;;;6.42;82.32;99696.53;79519;1297;3018723;-67
2023/11/11 01:43:23;;;;;;;9.30;6.30;;;;;;;6.26;82.99;99697.64;79372;1297;3012545;-67
2023/11/11 01:45:51;;;;;;;10.30;6.70;;;;;;;6.18;83.39;99686.29;78211;1300;3053166;-68
2023/11/11 01:48:18;;;;;;;9.00;5.70;;;;;;;6.04;83.72;99687.70;79312;1300;3015684;-68
2023/11/11 01:50:44;;;;;;;9.00;7.70;;;;;;;6.53;82.93;99680.03;79415;1300;3012870;-65
2023/11/11 01:53:14;;;;;;;10.20;7.50;;;;;;;7.06;80.65;99676.98;78222;1297;3026608;-67
2023/11/11 01:55:41;;;;;;;10.70;7.40;;;;;;;6.98;79.93;99671.95;79634;1297;3011639;-69
2023/11/11 01:58:08;;;;;;;10.80;7.30;;;;;;;6.76;80.12;99670.61;79516;1296;3011947;-69
2023/11/11 02:00:38;;;;;;;10.90;7.30;;;;;;;6.64;80.83;99666.04;78327;1298;3053520;-69
2023/11/11 02:03:05;;;;;;;10.20;7.90;;;;;;;6.49;81.17;99662.99;79488;1298;3015325;-67
2023/11/11 02:05:32;;;;;;;12.10;9.60;;;;;;;6.29;81.90;99660.66;79489;1299;3011653;-67
2023/11/11 02:08:02;;;;;;;13.50;9.20;;;;;;;6.07;82.69;99658.89;78328;1298;3069144;-68
2023/11/11 02:10:30;;;;;;;14.80;8.20;;;;;;;5.95;83.68;99654.66;79454;1297;3011573;-67
2023/11/11 02:12:59;;;;;;;8.50;4.90;;;;;;;5.81;84.19;99659.01;79059;1297;3011621;-70
2023/11/11 02:15:26;;;;;;;9.50;4.90;;;;;;;6.22;84.05;99650.67;79400;1298;3013751;-69
2023/11/11 02:17:53;;;;;;;6.40;4.30;;;;;;;6.68;82.25;99653.17;79407;1297;3011630;-66
2023/11/11 02:20:22;;;;;;;7.50;4.70;;;;;;;6.84;81.74;99648.34;78267;1300;3052765;-70
2023/11/11 02:22:48;;;;;;;7.00;4.90;;;;;;;6.64;82.08;99649.67;79405;1298;3013014;-68
2023/11/11 02:25:15;;;;;;;6.80;5.00;;;;;;;6.50;82.52;99646.94;79396;1298;3011708;-67
2023/11/11 02:27:45;;;;;;;7.20;5.10;;;;;;;6.28;83.64;99645.59;78160;1297;3025896;-69
2023/11/11 02:30:12;;;;;;;7.40;5.00;;;;;;;6.22;84.10;99641.11;79577;1296;3013102;-70
2023/11/11 02:32:42;;;;;;;6.60;4.60;;;;;;;6.05;84.88;99633.23;78956;1300;3011655;-66
2023/11/11 02:35:09;;;;;;;6.40;4.40;;;;;;;5.92;86.27;99635.83;79411;1300;3013422;-67
2023/11/11 02:37:35;;;;;;;6.60;4.70;;;;;;;6.41;85.44;99632.15;79342;1300;3013475;-66
2023/11/11 02:40:03;;;;;;;6.30;4.40;;;;;;;6.96;83.44;99632.84;75291;1296;3502223;-67
2023/11/11 02:42:30;;;;;;;7.10;5.00;;;;;;;7.01;82.59;99637.70;79388;1298;3013737;-69
2023/11/11 02:44:57;;;;;;;6.60;4.90;;;;;;;6.82;83.02;99640.56;79464;1297;3011614;-70
2023/11/11 02:47:24;;;;;;;7.70;4.70;;;;;;;6.64;83.99;99630.54;78249;1296;3052341;-67
2023/11/11 02:49:51;;;;;;;8.00;5.20;;;;;;;6.58;84.28;99626.42;79392;1300;3015651;-66
2023/11/11 02:52:18;;;;;;;11.00;5.70;;;;;;;6.49;84.48;99627.83;79389;1300;3011553;-67
2023/11/11 02:54:46;;;;;;;6.70;5.00;;;;;;;6.30;85.15;99627.91;78219;1300;3026377;-68
2023/11/11 02:57:12;;;;;;;7.00;4.60;;;;;;;6.18;85.94;99626.31;79404;1297;3012931;-67
2023/11/11 02:59:40;;;;;;;8.20;5.10;;;;;;;6.69;85.21;99622.66;79457;1299;3015402;-69
2023/11/11 03:02:11;;;;;;;12.40;5.70;;;;;;;7.22;82.90;99612.73;78334;1297;3025660;-69
2023/11/11 03:04:40;;;;;;;8.10;4.80;;;;;;;7.21;82.14;99609.98;79433;1297;3011822;-67
2023/11/11 03:07:08;;;;;;;8.20;5.60;;;;;;;7.01;82.47;99607.20;78212;1300;3052331;-70
2023/11/11 03:09:39;;;;;;;10.10;6.30;;;;;;;6.81;83.23;99595.68;79452;1300;3013806;-68
2023/11/11 03:12:09;;;;;;;9.70;6.10;;;;;;;6.59;83.82;99596.79;78219;1298;3050554;-68
2023/11/11 03:14:36;;;;;;;10.60;6.00;;;;;;;6.39;84.73;99594.33;79644;1296;3011676;-65
2023/11/11 03:17:03;;;;;;;11.20;6.60;;;;;;;6.26;85.04;99595.01;79432;1296;3011666;-69
2023/11/11 03:19:31;;;;;;;8.10;5.50;;;;;;;6.15;85.89;99596.17;78359;1297;3050645;-66
2023/11/11 03:21:58;;;;;;;7.20;5.70;;;;;;;6.58;85.23;99596.48;79470;1300;3019204;-68
2023/11/11 03:24:24;;;;;;;8.40;6.20;;;;;;;7.03;83.19;99595.95;79504;1297;3013211;-66
2023/11/11 03:26:52;;;;;;;11.40;6.50;;;;;;;6.96;82.97;99591.04;78218;1298;3025103;-70
2023/11/11 03:29:19;;;;;;;10.60;6.90;;;;;;;6.73;83.74;99591.70;79536;1295;3013788;-67
2023/11/11 03:31:46;;;;;;;9.70;6.40;;;;;;;6.63;83.90;99587.23;79417;1297;3013371;-66
2023/11/11 03:34:14;;;;;;;11.30;6.90;;;;;;;6.40;84.71;99577.41;78267;1297;3049344;-68
2023/11/11 03:36:41;;;;;;;10.30;6.70;;;;;;;6.13;85.76;99574.14;79514;1300;3013815;-67
2023/11/11 03:39:08;;;;;;;11.30;6.90;;;;;;;6.01;86.35;99574.45;79462;1299;3013267;-67
2023/11/11 03:41:36;;;;;;;10.20;4.30;;;;;;;5.95;86.82;99568.26;78192;1300;3026730;-68
2023/11/11 03:44:03;;;;;;;8.40;5.90;;;;;;;6.38;85.74;99561.65;79431;1300;3011719;-67
2023/11/11 03:46:30;;;;;;;10.60;5.70;;;;;;;6.68;84.25;99557.45;79425;1300;3011494;-67
2023/11/11 03:48:57;;;;;;;13.00;5.40;;;;;;;6.85;83.34;99549.90;78243;1300;3025705;-69
2023/11/11 03:51:24;;;;;;;11.60;6.20;;;;;;;6.68;83.51;99541.44;79440;1297;3013071;-69
2023/11/11 03:53:51;;;;;;;9.70;6.50;;;;;;;6.53;83.84;99541.16;79487;1297;3012882;-68
2023/11/11 03:56:24;;;;;;;11.00;7.10;;;;;;;6.39;84.25;99543.86;78140;1296;3026202;-69
2023/11/11 03:58:50;;;;;;;;;;;;;;;6.19;84.73;99547.99;79460;1299;3011711;-69
2023/11/11 04:01:18;;;;;;;10.60;7.70;;;;;;;5.95;85.79;99547.73;78199;1298;3047760;-69
2023/11/11 04:03:45;;;;;;;15.00;8.00;;;;;;;5.85;86.49;99539.06;79351;1300;3016060;-68
2023/11/11 04:06:12;;;;;;;9.80;6.50;;;;;;;5.76;87.16;99538.40;79353;1298;3012943;-69
2023/11/11 04:08:40;;;;;;;11.20;6.40;;;;;;;6.18;86.23;99533.92;78172;1300;3026341;-68
2023/11/11 04:11:07;;;;;;;11.80;5.70;;;;;;;6.71;84.24;99526.13;79615;1297;3013373;-67
2023/11/11 04:13:35;;;;;;;9.60;6.20;;;;;;;6.78;83.02;99537.67;79346;1297;3013297;-66
2023/11/11 04:16:04;;;;;;;8.80;6.40;;;;;;;6.62;83.43;99541.16;78181;1300;3048870;-66
2023/11/11 04:18:33;;;;;;;10.20;6.10;;;;;;;6.48;83.83;99537.40;79469;1297;3013821;-69
2023/11/11 04:21:02;;;;;;;8.30;6.10;;;;;;;6.31;84.09;99534.98;78894;1300;3011520;-66
2023/11/11 04:23:29;;;;;;;11.30;5.80;;;;;;;6.13;84.85;99536.22;79621;1299;3013844;-68
2023/11/11 04:25:56;;;;;;;11.50;6.90;;;;;;;5.96;85.40;99541.41;79395;1298;3011743;-67
2023/11/11 04:28:25;;;;;;;8.00;5.50;;;;;;;5.82;86.41;99537.64;78376;1297;3051549;-65
2023/11/11 04:30:52;;;;;;;8.00;5.40;;;;;;;6.32;85.15;99541.19;79424;1300;3013577;-69
2023/11/11 04:33:21;;;;;;;8.70;5.20;;;;;;;6.85;82.85;99539.80;79359;1296;3013443;-67
2023/11/11 04:35:51;;;;;;;8.20;5.50;;;;;;;6.79;82.17;99538.14;77997;1300;3050463;-69
2023/11/11 04:38:19;;;;;;;11.10;5.70;;;;;;;6.62;82.60;99530.89;79449;1298;3011670;-68
2023/11/11 04:40:50;;;;;;;10.20;6.50;;;;;;;6.41;83.40;99527.09;78881;1299;3014034;-68
2023/11/11 04:43:18;;;;;;;11.00;6.70;;;;;;;6.22;84.07;99529.24;79472;1300;3012735;-67
2023/11/11 04:45:44;;;;;;;8.40;5.90;;;;;;;6.16;84.19;99528.62;79415;1297;3011514;-68
2023/11/11 04:48:12;;;;;;;8.50;6.60;;;;;;;5.97;84.91;99538.79;78152;1300;3048872;-65
2023/11/11 04:50:39;;;;;;;9.90;4.70;;;;;;;5.88;85.68;99530.79;79196;1300;3013164;-66
2023/11/11 04:53:07;;;;;;;11.60;6.00;;;;;;;6.33;84.81;99525.30;79196;1303;3011645;-67
2023/11/11 04:55:36;;;;;;;15.20;7.00;;;;;;;6.79;82.91;99515.16;78305;1296;3052677;-70
2023/11/11 04:58:03;;;;;;;7.70;5.90;;;;;;;6.95;82.13;99513.59;79478;1300;3013405;-68
2023/11/11 05:00:30;;;;;;;12.50;7.40;;;;;;;6.70;82.33;99508.08;79628;1297;3011890;-65
2023/11/11 05:03:00;;;;;;;11.70;8.10;;;;;;;6.42;83.31;99508.94;78268;1296;3048700;-65
2023/11/11 05:05:27;;;;;;;10.60;7.70;;;;;;;6.27;84.16;99514.41;79647;1300;3013541;-69
2023/11/11 05:07:54;;;;;;;13.10;8.70;;;;;;;6.09;84.95;99509.97;79526;1302;3011793;-68
2023/11/11 05:10:22;;;;;;;12.90;9.60;;;;;;;6.00;85.33;99512.75;78185;1300;3052029;-67
2023/11/11 05:12:51;;;;;;;11.20;7.90;;;;;;;5.92;86.25;99505.41;79413;1300;3021452;-67
2023/11/11 05:15:19;;;;;;;11.20;7.80;;;;;;;6.42;84.95;99500.20;79392;1298;3011541;-68
2023/11/11 05:17:47;;;;;;;10.40;7.10;;;;;;;6.86;83.15;99494.99;78197;1298;3049200;-67
2023/11/11 05:20:14;;;;;;;12.20;8.40;;;;;;;6.96;82.39;99495.61;79504;1297;3013307;-66
2023/11/11 05:22:41;;;;;;;12.50;8.10;;;;;;;6.78;82.35;99487.17;79450;1300;3011790;-66
2023/11/11 05:25:12;;;;;;;13.50;9.80;;;;;;;6.68;82.69;99485.36;78271;1300;3025200;-66
2023/11/11 05:27:42;;;;;;;12.80;9.30;;;;;;;6.54;83.19;99488.73;79383;1299;3011535;-65
2023/11/11 05:30:11;;;;;;;13.20;9.40;;;;;;;6.33;84.00;99485.14;78346;1300;3050172;-66
2023/11/11 05:32:38;;;;;;;16.10;10.10;;;;;;;6.18;84.83;99484.38;79652;1297;3013073;-70
2023/11/11 05:35:05;;;;;;;9.20;6.50;;;;;;;6.11;85.49;99478.58;79634;1299;3011429;-67
2023/11/11 05:37:33;;;;;;;11.00;6.80;;;;;;;6.57;84.32;99480.09;78302;1300;3049936;-68
2023/11/11 05:40:00;;;;;;;9.00;6.50;;;;;;;7.15;82.18;99479.77;79433;1299;3012886;-67
2023/11/11 05:42:27;;;;;;;9.40;7.10;;;;;;;7.20;81.02;99476.41;79340;1300;3011602;-68
2023/11/11 05:44:54;;;;;;;13.10;6.90;;;;;;;6.93;81.13;99469.64;78157;1298;3026719;-67
2023/11/11 05:47:23;;;;;;;8.80;6.80;;;;;;;6.81;81.60;99468.27;79635;1297;3014482;-70
2023/11/11 05:49:49;;;;;;;15.90;7.10;;;;;;;6.63;82.21;99466.10;79602;1297;3011629;-68
2023/11/11 05:52:18;;;;;;;11.00;6.70;;;;;;;6.50;82.50;99459.00;78219;1300;3050338;-68
2023/11/11 05:54:44;;;;;;;9.00;6.90;;;;;;;6.44;82.92;99453.66;80018;1297;3018840;-67
2023/11/11 05:57:11;;;;;;;10.80;7.90;;;;;;;6.20;83.38;99460.63;79851;1297;3012905;-70
2023/11/11 05:59:39;;;;;;;7.10;4.90;;;;;;;6.22;83.74;99448.55;78611;1294;3026608;-67
2023/11/11 06:02:05;;;;;;;14.50;6.10;;;;;;;6.76;82.54;99445.84;79831;1291;3018390;-68
2023/11/11 06:04:35;;;;;;;9.70;5.90;;;;;;;7.21;80.57;99445.88;79759;1292;3011756;-67
2023/11/11 06:07:04;;;;;;;11.30;6.10;;;;;;;7.27;79.23;99436.71;78554;1295;3049451;-67
2023/11/11 06:09:31;;;;;;;8.80;5.80;;;;;;;7.14;79.34;99432.95;79880;1295;3013377;-68
2023/11/11 06:11:58;;;;;;;9.00;6.50;;;;;;;6.91;80.04;99425.83;79765;1293;3011867;-66
2023/11/11 06:14:26;;;;;;;11.50;5.30;;;;;;;6.83;80.40;99422.19;78592;1293;3050473;-71
2023/11/11 06:16:53;;;;;;;9.80;5.80;;;;;;;6.74;80.88;99421.57;79831;1292;3013557;-68
2023/11/11 06:19:20;;;;;;;9.90;6.20;;;;;;;6.61;81.22;99415.86;79741;1291;3011931;-66
2023/11/11 06:21:48;;;;;;;12.90;6.50;;;;;;;6.45;82.00;99407.36;78647;1291;3048988;-66
2023/11/11 06:24:15;;;;;;;9.70;4.80;;;;;;;6.47;81.90;99405.88;79855;1295;3015448;-67
2023/11/11 06:26:41;;;;;;;7.60;4.90;;;;;;;6.98;80.92;99402.00;79686;1296;3011560;-67
2023/11/11 06:29:09;;;;;;;9.40;5.20;;;;;;;7.37;78.71;99397.69;78539;1296;3025909;-70
2023/11/11 06:31:36;;;;;;;8.90;5.40;;;;;;;7.39;78.08;99392.20;79828;1295;3013743;-66
2023/11/11 06:34:04;;;;;;;8.50;5.50;;;;;;;7.36;78.17;99389.55;79852;1296;3011624;-67
2023/11/11 06:36:32;;;;;;;9.10;6.00;;;;;;;7.27;78.46;99384.61;78546;1296;3050300;-68
2023/11/11 06:38:59;;;;;;;9.30;5.90;;;;;;;6.97;79.73;99381.85;79865;1301;3018533;-64
2023/11/11 06:41:25;;;;;;;11.70;6.70;;;;;;;6.92;80.17;99382.61;79813;1295;3011520;-71
2023/11/11 06:43:54;;;;;;;9.60;6.80;;;;;;;6.84;80.66;99373.24;78611;1297;3025996;-70
2023/11/11 06:46:22;;;;;;;10.60;6.80;;;;;;;6.71;81.41;99366.33;79814;1295;3012991;-69
2023/11/11 06:48:49;;;;;;;10.60;6.10;;;;;;;6.66;81.43;99355.09;79854;1294;3012253;-69
2023/11/11 06:51:16;;;;;;;9.50;4.90;;;;;;;6.70;81.72;99349.13;78528;1300;3049548;-69
2023/11/11 06:53:43;;;;;;;10.20;5.30;;;;;;;7.18;80.19;99342.35;79842;1297;3013247;-71
2023/11/11 06:56:14;;;;;;;10.20;5.80;;;;;;;7.61;78.14;99339.71;79838;1296;3013200;-70
2023/11/11 06:58:42;;;;;;;9.80;5.80;;;;;;;7.88;76.96;99335.41;78631;1296;3051363;-71
2023/11/11 07:01:09;;;;;;;8.50;6.00;;;;;;;7.71;77.09;99336.73;79960;1295;3013970;-68
2023/11/11 07:03:36;;;;;;;10.90;6.10;;;;;;;7.62;77.35;99338.30;79758;1297;3011999;-69
2023/11/11 07:06:05;;;;;;;8.10;6.20;;;;;;;7.54;77.64;99338.50;78636;1291;3026318;-71
2023/11/11 07:08:33;;;;;;;10.70;6.60;;;;;;;7.47;77.90;99332.58;79750;1294;3013260;-67
2023/11/11 07:11:04;;;;;;;12.10;6.80;;;;;;;7.35;78.46;99328.65;79391;1291;3011981;-70
2023/11/11 07:13:31;;;;;;;10.70;6.40;;;;;;;7.25;79.01;99314.63;79938;1295;3013024;-68
2023/11/11 07:15:58;;;;;;;8.90;6.20;;;;;;;7.20;79.22;99313.52;79872;1293;3012120;-69
2023/11/11 07:18:25;;;;;;;13.30;7.00;;;;;;;7.17;79.32;99310.88;78658;1292;3048971;-70
2023/11/11 07:20:52;;;;;;;7.40;4.50;;;;;;;7.06;79.78;99307.41;80039;1297;3013327;-68
2023/11/11 07:23:18;;;;;;;11.30;5.60;;;;;;;7.71;78.41;99299.09;79875;1292;3011630;-69
2023/11/11 07:25:46;;;;;;;9.40;5.30;;;;;;;8.26;76.08;99295.54;78673;1295;3026619;-70
2023/11/11 07:28:15;;;;;;;8.10;5.40;;;;;;;8.26;75.45;99287.37;79814;1292;3013555;-69
2023/11/11 07:30:41;;;;;;;7.10;4.80;;;;;;;8.13;75.65;99281.56;79779;1293;3013926;-66
2023/11/11 07:33:09;;;;;;;10.00;6.40;;;;;;;8.03;75.81;99277.19;78580;1296;3050034;-66
2023/11/11 07:35:36;;;;;;;8.90;6.30;;;;;;;7.93;76.14;99269.05;79827;1296;3013323;-66
2023/11/11 07:38:04;;;;;;;12.10;6.80;;;;;;;7.73;76.93;99264.31;80134;1291;3011967;-65
2023/11/11 07:40:32;;;;;;;9.60;5.70;;;;;;;7.66;77.30;99267.98;78637;1297;3051602;-66
2023/11/11 07:42:58;;;;;;;8.60;5.80;;;;;;;7.62;77.46;99264.04;79867;1295;3013716;-68
2023/11/11 07:45:26;;;;;;;11.90;6.80;;;;;;;7.64;77.45;99258.32;80060;1296;3011921;-63
2023/11/11 07:47:54;;;;;;;9.70;6.10;;;;;;;7.56;77.84;99252.32;79076;1291;3049046;-68
2023/11/11 07:50:21;;;;;;;9.90;6.40;;;;;;;7.58;77.89;99249.08;79719;1295;3019057;-69
2023/11/11 07:52:48;;;;;;;9.70;4.80;;;;;;;7.54;78.34;99247.17;79660;1295;3012096;-69
2023/11/11 07:55:16;;;;;;;8.80;5.10;;;;;;;8.06;77.25;99239.73;78435;1297;3052637;-67
2023/11/11 07:57:43;;;;;;;8.20;5.90;;;;;;;8.54;74.79;99230.67;79836;1295;3013499;-66
2023/11/11 08:00:15;;;;;;;11.40;6.60;;;;;;;8.73;74.22;99225.60;79892;1297;3011811;-69
2023/11/11 08:02:49;;;;;;;12.20;6.20;;;;;;;8.67;74.29;99223.86;78741;1296;3049627;-68
2023/11/11 08:05:16;;;;;;;11.10;6.00;;;;;;;8.47;74.95;99220.95;79802;1296;3011997;-67
2023/11/11 08:07:44;;;;;;;11.90;5.90;;;;;;;8.46;75.06;99225.36;78873;1292;3049506;-65
2023/11/11 08:10:11;;;;;;;14.80;6.90;;;;;;;8.43;75.40;99212.64;79787;1297;3013715;-68
2023/11/11 08:12:38;;;;;;;10.60;6.00;;;;;;;8.32;75.51;99206.58;79574;1296;3011594;-68
2023/11/11 08:15:06;;;;;;;8.70;6.20;;;;;;;8.25;75.63;99199.83;78715;1297;3025742;-65
2023/11/11 08:17:33;;;;;;;8.50;5.60;;;;;;;8.09;76.16;99198.23;79829;1293;3014853;-67
2023/11/11 08:20:00;;;;;;;11.00;6.00;;;;;;;8.06;76.71;99202.25;79787;1298;3012089;-67
2023/11/11 08:22:28;;;;;;;11.30;6.60;;;;;;;8.06;77.03;99206.95;78524;1296;3049813;-67
2023/11/11 08:24:54;;;;;;;13.50;6.30;;;;;;;8.01;77.60;99203.02;79701;1297;3013847;-68
2023/11/11 08:27:21;;;;;;;7.70;4.80;;;;;;;8.02;77.43;99203.34;79834;1297;3011882;-66
2023/11/11 08:29:49;;;;;;;9.00;4.60;;;;;;;8.63;76.32;99194.58;78542;1293;3025573;-65
2023/11/11 08:32:17;;;;;;;6.80;4.10;;;;;;;9.17;73.92;99198.79;79946;1295;3013308;-71
2023/11/11 08:34:44;;;;;;;9.20;4.70;;;;;;;9.27;73.21;99196.29;80173;1291;3011758;-67
2023/11/11 08:37:12;;;;;;;9.30;4.20;;;;;;;9.25;73.30;99187.84;78810;1293;3050405;-70
2023/11/11 08:39:39;;;;;;;7.60;4.90;;;;;;;9.10;73.80;99179.32;79902;1292;3018227;-69
2023/11/11 08:42:06;;;;;;;9.00;5.00;;;;;;;8.96;74.20;99169.98;79977;1292;3013694;-65
2023/11/11 08:44:34;;;;;;;8.70;5.00;;;;;;;8.83;74.68;99166.89;78763;1296;3028371;-70
2023/11/11 08:47:00;;;;;;;6.70;4.90;;;;;;;8.70;75.40;99163.82;79880;1295;3013412;-69
2023/11/11 08:49:27;;;;;;;6.80;4.40;;;;;;;8.61;75.92;99157.71;79846;1298;3011566;-69
2023/11/11 08:51:55;;;;;;;8.60;5.80;;;;;;;8.57;76.13;99153.91;78610;1293;3025441;-66
2023/11/11 08:54:22;;;;;;;9.30;5.60;;;;;;;8.48;76.46;99152.48;79976;1292;3013567;-70
2023/11/11 08:56:48;;;;;;;9.60;4.80;;;;;;;8.42;77.03;99151.92;79998;1296;3011579;-67
2023/11/11 08:59:16;;;;;;;8.50;4.30;;;;;;;8.45;77.21;99144.09;78558;1293;3025767;-68
2023/11/11 09:01:43;;;;;;;6.90;3.80;;;;;;;8.46;77.42;99140.74;79849;1293;3018994;-67
2023/11/11 09:04:10;;;;;;;6.30;3.80;;;;;;;9.05;76.17;99136.41;79893;1295;3011611;-72
2023/11/11 09:06:38;;;;;;;8.00;4.20;;;;;;;9.56;73.79;99131.66;78609;1295;3026330;-69
2023/11/11 09:09:05;;;;;;;9.80;4.40;;;;;;;9.70;72.93;99128.30;80032;1295;3013446;-66
2023/11/11 09:11:36;;;;;;;9.30;4.30;;;;;;;9.60;73.01;99119.45;79814;1304;3012073;-66
2023/11/11 09:14:05;;;;;;;10.50;4.60;;;;;;;9.48;73.47;99120.71;78703;1292;3051111;-70
2023/11/11 09:16:32;;;;;;;7.60;5.30;;;;;;;9.34;74.22;99118.28;79838;1296;3013177;-71
2023/11/11 09:19:00;;;;;;;9.60;5.00;;;;;;;9.22;74.62;99115.17;79802;1296;3012778;-67
2023/11/11 09:21:28;;;;;;;7.90;5.00;;;;;;;9.08;75.24;99104.14;78694;1295;3049043;-67
2023/11/11 09:23:55;;;;;;;8.10;5.00;;;;;;;8.91;75.80;99095.19;79901;1295;3018360;-66
2023/11/11 09:26:21;;;;;;;6.90;4.10;;;;;;;8.93;76.32;99094.70;79820;1293;3011797;-67
2023/11/11 09:28:50;;;;;;;8.30;4.20;;;;;;;8.85;76.88;99088.87;78629;1297;3026547;-68
2023/11/11 09:31:17;;;;;;;9.10;4.30;;;;;;;8.77;77.69;99087.63;79893;1297;3013384;-67
2023/11/11 09:33:47;;;;;;;6.20;2.90;;;;;;;8.76;78.40;99081.39;79895;1291;3011422;-69
2023/11/11 09:36:17;;;;;;;8.40;3.20;;;;;;;9.26;77.77;99067.02;78589;1295;3050002;-66
2023/11/11 09:38:44;;;;;;;5.10;3.30;;;;;;;9.74;76.13;99050.58;79873;1291;3011899;-64
2023/11/11 09:41:13;;;;;;;4.90;3.00;;;;;;;9.73;75.97;99041.20;79314;1291;3013120;-67
2023/11/11 09:43:40;;;;;;;6.60;3.50;;;;;;;9.73;76.33;99035.98;79851;1292;3013237;-65
2023/11/11 09:46:06;;;;;;;6.40;3.90;;;;;;;9.60;76.45;99029.79;79775;1290;3011627;-68
2023/11/11 09:48:35;;;;;;;7.20;3.90;;;;;;;9.45;77.42;99021.84;78473;1293;3026247;-65
2023/11/11 09:51:03;;;;;;;9.60;4.50;;;;;;;9.39;77.76;99017.27;79847;1295;3013370;-67
2023/11/11 09:53:31;;;;;;;6.90;4.00;;;;;;;9.27;78.40;99008.95;79670;1297;3012027;-65
2023/11/11 09:56:00;;;;;;;5.50;4.20;;;;;;;9.13;79.00;98997.92;78335;1298;3053075;-70
2023/11/11 09:58:26;;;;;;;6.40;4.10;;;;;;;9.08;79.27;98990.91;79784;1293;3013264;-67
2023/11/11 10:00:54;;;;;;;6.70;2.80;;;;;;;8.89;80.20;98983.52;79841;1293;3013465;-66
2023/11/11 10:03:22;;;;;;;10.00;3.50;;;;;;;9.50;79.79;98978.31;78631;1290;3048383;-65
2023/11/11 10:05:49;;;;;;;5.40;3.60;;;;;;;9.97;77.62;98972.48;79780;1291;3013581;-67
2023/11/11 10:08:15;;;;;;;6.90;3.60;;;;;;;10.15;76.59;98965.52;79770;1297;3011825;-68
2023/11/11 10:10:43;;;;;;;7.40;4.10;;;;;;;10.11;76.47;98961.40;78629;1295;3026638;-67
2023/11/11 10:13:10;;;;;;;7.60;4.00;;;;;;;9.79;77.24;98952.14;79893;1292;3013757;-66
2023/11/11 10:15:36;;;;;;;8.20;4.30;;;;;;;9.61;77.64;98950.52;79872;1293;3011767;-67
2023/11/11 10:18:05;;;;;;;6.60;4.10;;;;;;;9.48;78.15;98942.95;78641;1296;3026006;-68
2023/11/11 10:20:33;;;;;;;6.30;4.30;;;;;;;9.48;78.55;98937.73;79851;1297;3013390;-67
2023/11/11 10:22:59;;;;;;;6.30;4.40;;;;;;;9.34;79.12;98934.20;79890;1294;3011582;-68
2023/11/11 10:25:27;;;;;;;7.90;5.40;;;;;;;9.33;78.51;98924.51;78680;1290;3052840;-67
2023/11/11 10:27:54;;;;;;;7.10;4.80;;;;;;;9.21;79.11;98922.98;80016;1295;3020861;-67
2023/11/11 10:30:24;;;;;;;7.60;3.60;;;;;;;9.19;79.32;98918.95;80039;1296;3011928;-72
2023/11/11 10:32:52;;;;;;;7.80;4.10;;;;;;;9.66;78.25;98909.61;78649;1292;3049030;-69
2023/11/11 10:35:20;;;;;;;7.20;3.30;;;;;;;10.17;76.25;98908.86;79950;1297;3015329;-71
2023/11/11 10:37:47;;;;;;;8.60;3.50;;;;;;;10.24;76.15;98906.47;80017;1296;3011973;-68
2023/11/11 10:40:16;;;;;;;6.20;3.60;;;;;;;10.01;76.34;98898.95;78732;1296;3053898;-69
2023/11/11 10:42:44;;;;;;;7.70;4.10;;;;;;;9.86;77.27;98895.71;79998;1292;3013976;-68
2023/11/11 10:45:12;;;;;;;6.80;3.90;;;;;;;9.75;78.23;98896.63;79735;1291;3012041;-68
2023/11/11 10:47:44;;;;;;;8.40;3.90;;;;;;;9.46;79.51;98887.30;78678;1296;3047759;-67
2023/11/11 10:50:11;;;;;;;6.00;3.90;;;;;;;9.52;79.26;98878.76;79850;1296;3011935;-71
2023/11/11 10:52:40;;;;;;;9.20;4.20;;;;;;;9.40;80.13;98871.96;78689;1294;3026530;-70
2023/11/11 10:55:07;;;;;;;8.80;4.90;;;;;;;9.26;81.05;98870.61;79846;1296;3011545;-66
2023/11/11 10:57:34;;;;;;;4.10;2.50;;;;;;;9.28;81.95;98873.10;80003;1295;3011589;-64
2023/11/11 11:00:24;;;;;;;5.70;3.30;;;;;;;9.94;80.55;98871.36;78679;1291;3050991;-66
2023/11/11 11:02:54;;;;;;;7.10;3.70;;;;;;;10.60;77.78;98867.44;78567;1296;3057282;-67
2023/11/11 11:05:26;;;;;;;6.10;3.50;;;;;;;10.42;77.02;98865.55;79961;1291;3011931;-62
2023/11/11 11:07:59;;;;;;;8.00;3.40;;;;;;;10.30;77.32;98857.91;78639;1291;3053119;-69
2023/11/11 11:10:33;;;;;;;7.80;3.70;;;;;;;10.08;77.95;98863.77;79880;1292;3011762;-65
2023/11/11 11:13:08;;;;;;;8.70;4.20;;;;;;;9.98;78.78;98859.89;78553;1295;3051682;-66
2023/11/11 11:15:40;;;;;;;5.40;3.60;;;;;;;9.69;79.63;98855.00;79245;1295;3011737;-65
2023/11/11 11:18:08;;;;;;;7.40;3.70;;;;;;;9.62;79.90;98851.11;79845;1293;3011454;-64
2023/11/11 11:20:37;;;;;;;4.90;3.20;;;;;;;9.54;80.61;98849.56;78725;1291;3068145;-69
2023/11/11 11:23:10;;;;;;;5.30;2.80;;;;;;;9.45;81.34;98846.88;79899;1291;3012865;-64
2023/11/11 11:25:41;;;;;;;7.10;3.50;;;;;;;10.01;79.97;98829.48;78631;1294;3049423;-69